Time;durP1;ratioP1;P1;durP2;ratioP2;P2;SDS_P1;SDS_P2;PMS_P1;PMS_P2;Temp;Humidity;BMP_temperature;BMP_pressure;BME280_temperature;BME280_humidity;BME280_pressure;Samples;Min_cycle;Max_cycle;Signal;HPM_P1;HPM_P2
2021/01/09 00:01:40;;;;;;;40.40;25.00;;;;;;;-0.21;95.53;99385.91;1798600;79;21225;-60
2021/01/09 00:04:08;;;;;;;;;;;;;;;-0.20;95.59;99387.61;1801457;79;21583;-59
2021/01/09 00:06:39;;;;;;;49.98;27.27;;;;;;;-0.17;95.53;99387.20;1798625;79;20206;-59
2021/01/09 00:09:07;;;;;;;45.67;26.33;;;;;;;-0.19;95.42;99383.78;1798687;79;21070;-59
2021/01/09 00:11:36;;;;;;;48.15;25.37;;;;;;;-0.20;95.48;99379.53;1798744;79;21438;-59
2021/01/09 00:14:04;;;;;;;43.95;26.10;;;;;;;-0.18;95.56;99382.94;1798651;79;21074;-59
2021/01/09 00:16:32;;;;;;;44.45;25.65;;;;;;;-0.17;95.59;99384.65;1798612;79;21157;-60
2021/01/09 00:19:00;;;;;;;45.25;26.48;;;;;;;-0.18;95.50;99380.81;1798740;79;21121;-59
2021/01/09 00:21:36;;;;;;;44.58;27.00;;;;;;;-0.19;95.44;99382.52;1798755;79;21130;-59
2021/01/09 00:24:07;;;;;;;44.13;25.55;;;;;;;-0.21;95.42;99387.18;1798822;79;21373;-59
2021/01/09 00:26:35;;;;;;;43.48;25.68;;;;;;;-0.22;95.53;99382.49;1784195;79;21071;-59
2021/01/09 00:29:04;;;;;;;42.00;24.15;;;;;;;-0.21;95.59;99387.18;1771282;81;21056;-58
2021/01/09 00:31:32;;;;;;;45.30;26.62;;;;;;;-0.22;95.61;99388.88;1771396;81;21575;-58
2021/01/09 00:34:00;;;;;;;44.85;26.42;;;;;;;-0.23;95.64;99389.69;1771309;81;21136;-59
2021/01/09 00:36:28;;;;;;;45.98;26.42;;;;;;;-0.24;95.73;99386.70;1771344;81;21207;-59
2021/01/09 00:38:56;;;;;;;44.75;26.45;;;;;;;-0.21;95.85;99391.02;1771098;81;21424;-58
2021/01/09 00:41:31;;;;;;;40.88;24.00;;;;;;;-0.19;95.85;99388.05;1771285;81;21063;-58
2021/01/09 00:43:59;;;;;;;38.35;25.30;;;;;;;-0.19;95.82;99389.32;1771312;81;21159;-59
2021/01/09 00:46:27;;;;;;;43.52;25.55;;;;;;;-0.20;95.83;99396.55;1771263;81;21067;-59
2021/01/09 00:48:55;;;;;;;43.20;25.30;;;;;;;-0.21;95.87;99397.40;1771328;81;21215;-59
2021/01/09 00:51:22;;;;;;;46.15;24.87;;;;;;;-0.23;95.94;99393.95;1771216;81;21087;-59
2021/01/09 00:53:50;;;;;;;45.43;26.25;;;;;;;-0.24;96.02;99393.09;1771224;81;21110;-59
2021/01/09 00:56:18;;;;;;;45.85;26.48;;;;;;;-0.25;96.04;99387.55;1771234;81;21190;-59
2021/01/09 00:58:47;;;;;;;45.15;26.60;;;;;;;-0.25;96.09;99381.59;1771030;81;21063;-59
2021/01/09 01:01:15;;;;;;;45.40;25.32;;;;;;;-0.24;96.14;99384.58;1771232;81;21424;-59
2021/01/09 01:03:43;;;;;;;45.90;25.60;;;;;;;-0.26;96.19;99371.80;1771078;81;21505;-59
2021/01/09 01:06:11;;;;;;;42.65;25.90;;;;;;;-0.26;96.23;99375.63;1771314;81;21131;-59
2021/01/09 01:08:39;;;;;;;44.08;25.75;;;;;;;-0.25;96.24;99370.09;1771099;81;21130;-59
2021/01/09 01:11:09;;;;;;;45.52;26.68;;;;;;;-0.26;96.26;99370.52;1771206;81;21940;-59
2021/01/09 01:13:36;;;;;;;41.48;25.05;;;;;;;-0.25;96.31;99377.76;1771321;81;21356;-59
2021/01/09 01:16:05;;;;;;;40.88;24.43;;;;;;;-0.25;96.45;99378.61;1771014;81;21174;-58
2021/01/09 01:18:33;;;;;;;45.00;25.97;;;;;;;-0.24;96.43;99374.36;1771277;81;21189;-59
2021/01/09 01:21:01;;;;;;;47.95;27.50;;;;;;;-0.26;96.34;99371.80;1771132;81;21393;-58
2021/01/09 01:23:29;;;;;;;42.05;26.12;;;;;;;-0.25;96.34;99376.48;1771340;81;21171;-58
2021/01/09 01:25:57;;;;;;;43.95;25.92;;;;;;;-0.27;96.43;99373.06;1771211;81;22346;-58
2021/01/09 01:28:25;;;;;;;42.15;24.98;;;;;;;-0.23;96.57;99374.79;1771239;81;21187;-58
2021/01/09 01:30:52;;;;;;;42.83;25.80;;;;;;;-0.24;96.50;99376.91;1771176;81;21079;-58
2021/01/09 01:33:20;;;;;;;46.02;26.55;;;;;;;-0.25;96.42;99372.23;1771359;81;21110;-58
2021/01/09 01:35:48;;;;;;;46.37;26.55;;;;;;;-0.27;96.41;99370.52;1771146;81;21111;-59
2021/01/09 01:38:18;;;;;;;40.12;25.75;;;;;;;-0.29;96.48;99371.35;1771332;81;21158;-59
2021/01/09 01:40:45;;;;;;;45.08;26.68;;;;;;;-0.27;96.59;99367.95;1771187;81;21079;-59
2021/01/09 01:43:13;;;;;;;44.23;26.90;;;;;;;-0.25;96.66;99368.81;1771157;81;21060;-59
2021/01/09 01:45:43;;;;;;;45.58;27.07;;;;;;;-0.25;96.64;99365.84;1771181;81;21130;-60
2021/01/09 01:48:11;;;;;;;42.85;26.30;;;;;;;-0.23;96.54;99367.13;1771308;81;21579;-59
2021/01/09 01:50:39;;;;;;;43.38;25.15;;;;;;;-0.22;96.55;99367.59;1771276;81;21371;-59
2021/01/09 01:53:07;;;;;;;42.08;24.98;;;;;;;-0.23;96.51;99365.42;1771267;81;21095;-59
2021/01/09 01:55:35;;;;;;;41.53;24.87;;;;;;;-0.25;96.50;99367.54;1771383;81;21496;-59
2021/01/09 01:58:03;;;;;;;43.95;26.17;;;;;;;-0.27;96.47;99357.31;1771151;81;21194;-59
2021/01/09 02:00:31;;;;;;;46.75;27.17;;;;;;;-0.29;96.46;99360.28;1771219;81;21115;-60
2021/01/09 02:03:00;;;;;;;41.40;25.35;;;;;;;-0.33;96.48;99356.83;1771097;81;21456;-59
2021/01/09 02:05:35;;;;;;;44.65;26.05;;;;;;;-0.35;96.67;99356.38;1771125;81;21582;-59
2021/01/09 02:08:05;;;;;;;41.98;24.75;;;;;;;-0.35;96.79;99359.80;1771135;81;21127;-59
2021/01/09 02:10:33;;;;;;;43.90;26.48;;;;;;;-0.36;96.80;99359.36;1771230;81;21070;-59
2021/01/09 02:13:09;;;;;;;42.33;26.42;;;;;;;-0.35;96.83;99361.49;1770975;81;21933;-58
2021/01/09 02:15:37;;;;;;;;;;;;;;;-0.32;96.91;99356.41;1773889;81;21200;-59
2021/01/09 02:18:05;;;;;;;45.73;24.67;;;;;;;-0.32;96.95;99357.25;1771157;81;20626;-60
2021/01/09 02:20:35;;;;;;;44.65;25.17;;;;;;;-0.31;96.94;99356.41;1771298;81;21063;-59
2021/01/09 02:23:03;;;;;;;44.40;26.57;;;;;;;-0.33;96.83;99355.55;1770979;81;21142;-58
2021/01/09 02:25:30;;;;;;;46.23;27.67;;;;;;;-0.38;96.81;99352.11;1771304;81;21137;-59
2021/01/09 02:27:58;;;;;;;44.98;25.95;;;;;;;-0.40;96.92;99353.77;1793922;79;21177;-59
2021/01/09 02:30:30;;;;;;;45.25;26.55;;;;;;;-0.37;97.03;99356.38;1798962;79;21082;-59
2021/01/09 02:33:10;;;;;;;44.08;24.60;;;;;;;-0.37;97.03;99352.55;1798662;79;21196;-59
2021/01/09 02:35:39;;;;;;;47.33;26.48;;;;;;;-0.35;97.02;99355.11;1798689;79;21138;-59
2021/01/09 02:38:07;;;;;;;54.25;28.23;;;;;;;-0.39;96.90;99350.38;1798821;79;21145;-59
2021/01/09 02:40:40;;;;;;;45.25;27.65;;;;;;;-0.40;96.96;99349.94;1798622;79;21634;-59
2021/01/09 02:43:14;;;;;;;46.88;26.20;;;;;;;-0.40;97.02;99352.49;1798695;79;21555;-59
2021/01/09 02:45:42;;;;;;;43.28;26.10;;;;;;;-0.41;97.05;99349.52;1798779;79;21070;-61
2021/01/09 02:48:10;;;;;;;44.60;26.90;;;;;;;-0.43;97.08;99353.75;1798743;79;21121;-60
2021/01/09 02:50:37;;;;;;;43.38;25.65;;;;;;;-0.44;97.14;99352.05;1798882;79;21165;-60
2021/01/09 02:53:06;;;;;;;43.83;26.30;;;;;;;-0.45;97.21;99348.20;1798622;79;21369;-60
2021/01/09 02:55:34;;;;;;;41.73;25.12;;;;;;;-0.45;97.27;99348.20;1798872;79;21073;-60
2021/01/09 02:58:02;;;;;;;51.10;27.22;;;;;;;-0.44;97.35;99348.64;1798775;79;21150;-60
2021/01/09 03:00:30;;;;;;;51.77;28.67;;;;;;;-0.45;97.32;99349.48;1798806;79;21582;-60
2021/01/09 03:02:58;;;;;;;47.05;27.02;;;;;;;-0.46;97.33;99347.74;1798680;79;21169;-60
2021/01/09 03:05:26;;;;;;;48.60;27.22;;;;;;;-0.47;97.39;99343.05;1798764;79;21367;-60
2021/01/09 03:07:54;;;;;;;46.95;26.82;;;;;;;-0.47;97.36;99343.05;1798515;79;21089;-60
2021/01/09 03:10:21;;;;;;;48.33;28.52;;;;;;;-0.49;97.39;99350.28;1798728;79;21153;-60
2021/01/09 03:12:49;;;;;;;48.78;27.93;;;;;;;-0.49;97.36;99347.72;1798761;79;21145;-60
2021/01/09 03:15:17;;;;;;;47.80;27.45;;;;;;;-0.50;97.31;99351.98;1798813;79;21621;-60
2021/01/09 03:17:47;;;;;;;48.17;27.30;;;;;;;-0.50;97.36;99352.40;1798639;79;21204;-61
2021/01/09 03:20:15;;;;;;;46.23;25.68;;;;;;;-0.50;97.37;99349.84;1798594;79;21073;-60
2021/01/09 03:22:42;;;;;;;47.73;26.55;;;;;;;-0.50;97.33;99344.31;1798799;79;21046;-60
2021/01/09 03:25:12;;;;;;;48.10;28.50;;;;;;;-0.52;97.28;99337.07;1798530;79;21117;-60
2021/01/09 03:27:39;;;;;;;53.02;27.80;;;;;;;-0.50;97.33;99337.08;1798797;79;21138;-60
2021/01/09 03:30:10;;;;;;;48.20;26.40;;;;;;;-0.49;97.33;99340.92;1798657;79;21410;-61
2021/01/09 03:32:38;;;;;;;45.93;25.77;;;;;;;-0.48;97.32;99337.52;1798827;79;21181;-60
2021/01/09 03:35:07;;;;;;;49.63;28.20;;;;;;;-0.47;97.22;99340.92;1798797;79;21161;-60
2021/01/09 03:37:34;;;;;;;50.60;28.83;;;;;;;-0.49;97.09;99333.68;1798756;79;21070;-60
2021/01/09 03:40:05;;;;;;;47.33;27.73;;;;;;;-0.50;97.11;99331.55;1798693;79;21118;-60
2021/01/09 03:42:33;;;;;;;52.73;27.45;;;;;;;-0.48;97.13;99341.34;1798656;79;21472;-60
2021/01/09 03:45:02;;;;;;;49.98;28.07;;;;;;;-0.47;97.11;99339.23;1798720;79;21141;-60
2021/01/09 03:47:31;;;;;;;52.95;28.45;;;;;;;-0.50;96.93;99336.66;1798625;79;21114;-60
2021/01/09 03:49:58;;;;;;;49.55;28.10;;;;;;;-0.51;96.82;99343.88;1798565;79;21144;-60
2021/01/09 03:52:26;;;;;;;49.08;28.00;;;;;;;-0.52;96.79;99346.01;1798730;79;21074;-60
2021/01/09 03:54:54;;;;;;;50.92;28.00;;;;;;;-0.52;96.75;99349.84;1798781;79;21421;-59
2021/01/09 03:57:22;;;;;;;50.88;29.57;;;;;;;-0.52;96.74;99359.20;1798710;79;21594;-59
2021/01/09 03:59:50;;;;;;;46.37;27.13;;;;;;;-0.55;96.70;99353.61;1798674;79;21113;-59
2021/01/09 04:02:18;;;;;;;53.13;29.87;;;;;;;-0.55;96.60;99357.45;1798601;79;21201;-59
2021/01/09 04:04:45;;;;;;;43.55;26.15;;;;;;;-0.54;96.65;99357.88;1798798;79;21070;-59
2021/01/09 04:07:14;;;;;;;50.48;27.25;;;;;;;-0.52;96.71;99358.77;1798839;79;21369;-59
2021/01/09 04:09:41;;;;;;;50.33;28.00;;;;;;;-0.52;96.54;99356.22;1798809;79;21136;-59
2021/01/09 04:12:09;;;;;;;53.60;29.23;;;;;;;-0.52;96.50;99365.16;1798450;79;21435;-59
2021/01/09 04:14:37;;;;;;;44.03;25.80;;;;;;;-0.53;96.45;99366.39;1798748;79;21523;-59
2021/01/09 04:17:05;;;;;;;46.55;27.07;;;;;;;-0.54;96.45;99368.09;1798671;79;21073;-59
2021/01/09 04:19:33;;;;;;;45.33;26.02;;;;;;;-0.57;96.44;99365.52;1798728;79;21207;-59
2021/01/09 04:22:00;;;;;;;45.23;27.95;;;;;;;-0.58;96.45;99371.47;1798456;79;21125;-59
2021/01/09 04:24:28;;;;;;;46.48;26.52;;;;;;;-0.61;96.44;99366.30;1798801;79;21161;-59
2021/01/09 04:27:00;;;;;;;46.42;26.45;;;;;;;-0.63;96.42;99368.85;1795852;79;21066;-59
2021/01/09 04:29:28;;;;;;;43.42;25.77;;;;;;;-0.64;96.42;99368.42;1771497;81;21597;-59
2021/01/09 04:31:57;;;;;;;46.13;26.57;;;;;;;-0.67;96.50;99364.98;1771279;81;21691;-59
2021/01/09 04:34:25;;;;;;;44.88;26.15;;;;;;;-0.66;96.56;99368.83;1771403;81;21683;-59
2021/01/09 04:36:53;;;;;;;45.98;27.25;;;;;;;-0.65;96.51;99365.86;1771213;81;21063;-59
2021/01/09 04:39:21;;;;;;;49.13;25.85;;;;;;;-0.67;96.47;99366.27;1771352;81;21118;-59
2021/01/09 04:41:49;;;;;;;45.33;26.42;;;;;;;-0.65;96.56;99367.13;1771262;81;21137;-62
2021/01/09 04:44:17;;;;;;;43.83;26.52;;;;;;;-0.62;96.55;99367.16;1771360;81;21501;-59
2021/01/09 04:46:49;;;;;;;44.93;25.30;;;;;;;-0.63;96.46;99370.55;1771281;81;21079;-59
2021/01/09 04:49:25;;;;;;;45.73;26.15;;;;;;;-0.64;96.35;99374.80;1771342;81;21052;-59
2021/01/09 04:51:54;;;;;;;;;;;;;;;-0.65;96.32;99376.06;1773943;81;21512;-60
2021/01/09 04:54:25;;;;;;;45.05;25.40;;;;;;;-0.65;96.45;99378.62;1771243;81;20252;-59
2021/01/09 04:56:54;;;;;;;45.60;26.05;;;;;;;-0.64;96.55;99385.44;1771235;81;21210;-60
2021/01/09 04:59:23;;;;;;;45.45;26.30;;;;;;;-0.64;96.43;99387.56;1771271;81;21162;-59
2021/01/09 05:01:52;;;;;;;41.95;25.37;;;;;;;-0.64;96.32;99390.54;1771151;81;21138;-60
2021/01/09 05:04:20;;;;;;;45.83;26.17;;;;;;;-0.65;96.25;99389.69;1771168;81;21147;-59
2021/01/09 05:06:48;;;;;;;45.03;26.25;;;;;;;-0.63;96.15;99394.38;1771349;81;21190;-59
2021/01/09 05:09:16;;;;;;;47.78;27.45;;;;;;;-0.63;96.09;99389.70;1771402;81;22247;-59
2021/01/09 05:11:45;;;;;;;45.52;25.95;;;;;;;-0.62;95.99;99387.58;1771279;81;21086;-59
2021/01/09 05:14:13;;;;;;;46.15;26.12;;;;;;;-0.61;95.89;99393.12;1771197;81;21115;-59
2021/01/09 05:16:41;;;;;;;46.25;26.62;;;;;;;-0.61;95.86;99390.56;1771417;81;21619;-59
2021/01/09 05:19:09;;;;;;;44.77;25.65;;;;;;;-0.61;95.85;99400.77;1771181;81;21115;-59
2021/01/09 05:21:37;;;;;;;49.08;27.22;;;;;;;-0.61;95.77;99391.84;1771262;81;21252;-59
2021/01/09 05:24:08;;;;;;;43.42;24.82;;;;;;;-0.62;95.62;99393.95;1771075;81;21135;-59
2021/01/09 05:26:37;;;;;;;44.33;25.37;;;;;;;-0.62;95.50;99392.68;1771322;81;21082;-60
2021/01/09 05:29:06;;;;;;;45.65;24.32;;;;;;;-0.66;95.45;99396.91;1774185;80;21508;-59
2021/01/09 05:31:37;;;;;;;45.88;26.30;;;;;;;-0.67;95.44;99404.56;1774735;80;21052;-59
2021/01/09 05:34:05;;;;;;;45.78;26.15;;;;;;;-0.70;95.41;99400.67;1774707;80;21369;-59
2021/01/09 05:36:34;;;;;;;42.08;24.82;;;;;;;-0.71;95.52;99407.48;1774833;80;21071;-59
2021/01/09 05:39:05;;;;;;;42.10;24.67;;;;;;;-0.70;95.59;99409.19;1774774;80;21547;-60
2021/01/09 05:41:33;;;;;;;47.08;27.25;;;;;;;-0.71;95.49;99410.03;1774537;80;21083;-60
2021/01/09 05:44:06;;;;;;;44.50;25.60;;;;;;;-0.73;95.52;99410.86;1774708;80;21154;-59
2021/01/09 05:46:37;;;;;;;42.60;24.80;;;;;;;-0.74;95.61;99412.98;1774703;80;21367;-60
2021/01/09 05:49:08;;;;;;;47.88;25.85;;;;;;;-0.76;95.65;99419.31;1774843;80;21492;-60
2021/01/09 05:51:39;;;;;;;44.88;27.35;;;;;;;-0.75;95.75;99418.92;1774341;80;21078;-60
2021/01/09 05:54:08;;;;;;;46.33;27.35;;;;;;;-0.73;95.75;99419.80;1774747;80;21059;-59
2021/01/09 05:56:39;;;;;;;44.50;25.23;;;;;;;-0.71;95.78;99427.05;1774814;80;21155;-58
2021/01/09 05:59:07;;;;;;;44.58;24.87;;;;;;;-0.68;95.80;99424.13;1745166;80;21386;-59
2021/01/09 06:01:35;;;;;;;50.20;27.95;;;;;;;-0.67;95.73;99427.53;1774761;80;21103;-59
2021/01/09 06:04:10;;;;;;;44.98;27.10;;;;;;;-0.66;95.64;99429.24;1774847;80;21071;-59
2021/01/09 06:07:01;;;;;;;58.92;31.52;;;;;;;-0.63;95.71;99431.40;1773736;80;21068;-59
2021/01/09 06:12:12;;;;;;;57.10;30.10;;;;;;;-0.54;95.43;99434.48;1890000;76;27178;-60
2021/01/09 06:14:43;;;;;;;54.30;30.02;;;;;;;-0.57;95.23;99434.45;1861049;77;21040;-60
2021/01/09 06:17:11;;;;;;;46.05;25.92;;;;;;;-0.56;95.16;99434.89;1860898;77;21478;-59
2021/01/09 06:19:40;;;;;;;46.25;25.40;;;;;;;-0.54;95.08;99444.69;1860987;77;21069;-59
2021/01/09 06:22:07;;;;;;;47.98;28.57;;;;;;;-0.53;95.02;99443.84;1814609;78;21067;-59
2021/01/09 06:24:35;;;;;;;52.05;27.98;;;;;;;-0.52;94.88;99447.29;1781454;79;21159;-59
2021/01/09 06:27:05;;;;;;;44.55;26.95;;;;;;;-0.53;94.76;99445.13;1750432;80;21152;-59
2021/01/09 06:29:32;;;;;;;45.98;27.22;;;;;;;-0.52;94.70;99449.42;1814879;79;21374;-59
2021/01/09 06:32:05;;;;;;;44.88;26.40;;;;;;;-0.50;94.70;99449.02;1779957;79;21067;-59
2021/01/09 06:34:33;;;;;;;46.85;26.82;;;;;;;-0.45;94.71;99458.02;1781464;79;21564;-59
2021/01/09 06:37:04;;;;;;;47.62;28.83;;;;;;;-0.45;94.43;99460.15;1814663;79;21067;-59
2021/01/09 06:39:36;;;;;;;45.90;26.80;;;;;;;-0.49;94.17;99451.14;1814839;79;21584;-59
2021/01/09 06:42:06;;;;;;;43.40;25.70;;;;;;;-0.54;94.13;99451.50;1814560;79;22239;-59
2021/01/09 06:44:34;;;;;;;45.67;26.23;;;;;;;-0.58;94.19;99459.55;1814724;79;21197;-59
2021/01/09 06:47:02;;;;;;;49.45;28.30;;;;;;;-0.60;94.08;99458.27;1814588;78;21154;-59
2021/01/09 06:49:30;;;;;;;46.95;27.42;;;;;;;-0.63;94.09;99467.56;1814711;78;21051;-59
2021/01/09 06:52:06;;;;;;;46.30;25.55;;;;;;;-0.64;94.19;99463.30;1814679;79;21103;-59
2021/01/09 06:54:45;;;;;;;47.27;27.37;;;;;;;-0.65;94.14;99465.42;1815053;78;21458;-58
2021/01/09 06:57:22;;;;;;;49.35;27.37;;;;;;;-0.66;94.03;99470.09;1814590;79;21115;-59
2021/01/09 06:59:51;;;;;;;44.63;26.02;;;;;;;-0.65;93.93;99465.42;1814759;79;21055;-59
2021/01/09 07:02:26;;;;;;;43.02;25.72;;;;;;;-0.64;93.92;99472.23;1814770;79;21189;-59
2021/01/09 07:04:58;;;;;;;49.38;28.90;;;;;;;-0.65;93.85;99472.66;1814668;78;21098;-59
2021/01/09 07:07:52;;;;;;;46.42;27.45;;;;;;;-0.66;93.74;99478.61;1814677;79;21372;-59
2021/01/09 07:10:27;;;;;;;46.40;27.55;;;;;;;-0.65;93.70;99479.46;1813514;78;21489;-58
2021/01/09 07:12:58;;;;;;;49.58;29.37;;;;;;;-0.68;93.62;99479.40;1803703;79;21555;-59
2021/01/09 07:15:26;;;;;;;48.85;27.87;;;;;;;-0.70;93.71;99479.81;1802832;79;21056;-59
2021/01/09 07:17:58;;;;;;;52.05;29.85;;;;;;;-0.71;93.63;99492.99;1779349;79;21111;-59
2021/01/09 07:20:36;;;;;;;49.67;29.02;;;;;;;-0.71;93.62;99499.38;1803554;79;21332;-60
2021/01/09 07:23:10;;;;;;;55.43;30.65;;;;;;;-0.70;93.61;99491.30;1778605;79;21174;-60
2021/01/09 07:25:42;;;;;;;54.80;31.87;;;;;;;-0.71;93.58;99498.09;1803056;79;21667;-59
2021/01/09 07:28:15;;;;;;;51.77;29.72;;;;;;;-0.70;93.66;99498.53;1803070;79;21048;-60
2021/01/09 07:30:44;;;;;;;50.70;30.10;;;;;;;-0.71;93.58;99501.93;1802978;79;21115;-59
2021/01/09 07:33:14;;;;;;;49.13;28.45;;;;;;;-0.70;93.51;99502.36;1803064;79;21641;-59
2021/01/09 07:35:45;;;;;;;51.75;30.17;;;;;;;-0.68;93.53;99504.92;1803061;79;21512;-61
2021/01/09 07:38:13;;;;;;;58.75;31.48;;;;;;;-0.69;93.43;99505.77;1803095;79;21111;-58
2021/01/09 07:40:57;;;;;;;57.43;32.23;;;;;;;-0.69;93.41;99506.63;1803012;79;21655;-59
2021/01/09 07:43:41;;;;;;;54.98;31.27;;;;;;;-0.66;93.52;99508.38;1802218;79;21890;-59
2021/01/09 07:46:24;;;;;;;56.45;30.82;;;;;;;-0.63;93.45;99514.80;1802586;79;21328;-58
2021/01/09 07:48:52;;;;;;;62.53;32.93;;;;;;;-0.60;93.41;99511.88;1802696;79;21147;-58
2021/01/09 07:51:22;;;;;;;59.10;33.15;;;;;;;-0.57;93.28;99513.61;1802821;79;21497;-58
2021/01/09 07:53:49;;;;;;;56.35;31.07;;;;;;;-0.53;93.39;99515.34;1779040;79;21079;-58
2021/01/09 07:56:37;;;;;;;60.55;31.37;;;;;;;-0.47;93.22;99522.23;1802902;79;21059;-58
2021/01/09 07:59:05;;;;;;;66.70;35.28;;;;;;;-0.44;92.84;99514.64;1802892;79;21313;-58
2021/01/09 08:01:42;;;;;;;65.22;35.33;;;;;;;-0.44;92.84;99518.47;1802923;79;21155;-59
2021/01/09 08:04:11;;;;;;;58.78;33.85;;;;;;;-0.41;92.82;99521.05;1802867;79;21051;-61
2021/01/09 08:06:40;;;;;;;54.45;30.60;;;;;;;-0.37;92.77;99519.84;1802952;79;21059;-58
2021/01/09 08:09:09;;;;;;;56.00;33.15;;;;;;;-0.32;92.67;99516.91;1803021;79;21055;-59
2021/01/09 08:11:46;;;;;;;60.17;33.55;;;;;;;-0.30;92.57;99520.36;1816484;78;21476;-58
2021/01/09 08:14:13;;;;;;;;;;;;;;;-0.26;92.47;99518.69;1833861;78;21153;-60
2021/01/09 08:16:41;;;;;;;55.55;29.95;;;;;;;-0.23;92.33;99521.69;1831211;78;20216;-60
2021/01/09 08:19:20;;;;;;;62.65;34.48;;;;;;;-0.24;92.40;99517.42;1831294;78;21042;-60
2021/01/09 08:21:52;;;;;;;60.08;34.65;;;;;;;-0.21;92.45;99520.88;1831219;78;21034;-60
2021/01/09 08:24:25;;;;;;;66.60;37.58;;;;;;;-0.19;92.41;99519.62;1831546;78;21354;-60
2021/01/09 08:26:55;;;;;;;65.77;35.87;;;;;;;-0.19;92.35;99520.90;1831466;78;21101;-61
2021/01/09 08:29:28;;;;;;;63.20;33.50;;;;;;;-0.18;92.62;99520.91;1831309;78;21527;-60
2021/01/09 08:31:56;;;;;;;87.80;45.83;;;;;;;-0.15;92.56;99529.02;1831400;78;21122;-61
2021/01/09 08:34:25;;;;;;;75.32;38.40;;;;;;;-0.14;92.44;99530.77;1830978;78;21158;-60
2021/01/09 08:36:57;;;;;;;76.22;41.20;;;;;;;-0.13;92.33;99532.05;1831471;78;21131;-61
2021/01/09 08:39:25;;;;;;;70.78;39.25;;;;;;;-0.14;92.37;99532.04;1831316;78;21165;-60
2021/01/09 08:41:53;;;;;;;69.95;39.38;;;;;;;-0.13;92.26;99540.14;1831320;78;21106;-60
2021/01/09 08:44:22;;;;;;;70.78;39.13;;;;;;;-0.13;92.22;99535.03;1831421;78;21059;-60
2021/01/09 08:46:49;;;;;;;76.42;39.60;;;;;;;-0.12;92.31;99539.30;1831381;78;21053;-59
2021/01/09 08:49:27;;;;;;;90.75;43.40;;;;;;;-0.07;92.32;99544.05;1773748;78;21998;-59
2021/01/09 08:52:05;;;;;;;93.20;43.65;;;;;;;-0.05;92.39;99543.22;1831445;78;21109;-58
2021/01/09 08:54:33;;;;;;;95.50;44.38;;;;;;;-0.01;92.18;99544.09;1831481;78;21101;-59
2021/01/09 08:57:05;;;;;;;91.60;41.08;;;;;;;-0.02;92.13;99541.11;1799710;78;21424;-59
2021/01/09 08:59:34;;;;;;;99.22;45.92;;;;;;;-0.02;92.15;99538.55;1799859;78;21110;-59
2021/01/09 09:02:02;;;;;;;120.15;49.03;;;;;;;-0.05;92.17;99539.80;1831341;78;21261;-60
2021/01/09 09:04:30;;;;;;;74.35;40.20;;;;;;;-0.05;92.37;99535.97;1799600;78;21154;-59
2021/01/09 09:07:05;;;;;;;82.10;42.95;;;;;;;-0.06;92.38;99535.54;1773918;78;21058;-60
2021/01/09 09:09:34;;;;;;;79.77;42.10;;;;;;;-0.07;92.41;99537.66;1831603;78;21129;-59
2021/01/09 09:12:03;;;;;;;80.20;41.88;;;;;;;-0.09;92.47;99532.93;1787616;79;21147;-59
2021/01/09 09:14:31;;;;;;;71.35;39.78;;;;;;;-0.10;92.56;99535.05;1802821;79;22101;-59
2021/01/09 09:17:03;;;;;;;66.25;37.35;;;;;;;-0.14;92.49;99538.42;1802963;79;21189;-59
2021/01/09 09:19:38;;;;;;;68.22;39.20;;;;;;;-0.15;92.77;99535.41;1802860;79;21106;-59
2021/01/09 09:22:06;;;;;;;71.60;39.03;;;;;;;-0.14;92.96;99537.15;1803140;79;21591;-59
2021/01/09 09:24:42;;;;;;;66.77;38.05;;;;;;;-0.11;92.99;99539.73;1802869;79;21405;-59
2021/01/09 09:27:28;;;;;;;68.37;38.58;;;;;;;-0.09;93.02;99530.38;1803088;79;21377;-60
2021/01/09 09:30:13;;;;;;;75.03;39.35;;;;;;;-0.08;92.98;99529.53;1802792;79;21133;-59
2021/01/09 09:32:45;;;;;;;63.35;35.73;;;;;;;-0.11;93.07;99520.14;1802999;79;21059;-59
2021/01/09 09:35:27;;;;;;;71.90;39.13;;;;;;;-0.13;93.32;99523.11;1802918;79;21150;-59
2021/01/09 09:38:02;;;;;;;73.25;38.53;;;;;;;-0.11;93.37;99523.12;1803045;79;21099;-59
2021/01/09 09:40:30;;;;;;;69.37;38.95;;;;;;;-0.08;93.56;99521.86;1802061;79;21939;-60
2021/01/09 09:43:18;;;;;;;69.12;38.48;;;;;;;-0.09;93.57;99518.88;1803022;79;21091;-59
2021/01/09 09:45:58;;;;;;;70.28;38.40;;;;;;;-0.06;93.75;99515.09;1802992;79;21102;-59
2021/01/09 09:48:37;;;;;;;66.53;37.00;;;;;;;-0.04;93.86;99512.13;1802924;79;21544;-59
2021/01/09 09:51:10;;;;;;;74.75;39.75;;;;;;;-0.03;93.90;99508.73;1803040;79;21106;-60
2021/01/09 09:53:40;;;;;;;68.05;39.50;;;;;;;-0.02;94.06;99507.88;1802918;79;21428;-60
2021/01/09 09:56:19;;;;;;;73.83;40.45;;;;;;;0.02;94.15;99512.20;1803066;79;21087;-60
2021/01/09 09:58:50;;;;;;;75.22;39.80;;;;;;;0.07;94.12;99509.25;1802967;79;21055;-59
2021/01/09 10:01:22;;;;;;;68.95;40.03;;;;;;;0.13;94.20;99504.22;1801332;79;21071;-59
2021/01/09 10:03:49;;;;;;;73.50;40.85;;;;;;;0.16;94.09;99499.16;1802768;79;21043;-59
2021/01/09 10:06:18;;;;;;;69.42;38.20;;;;;;;0.20;94.18;99498.33;1802812;79;21401;-59
2021/01/09 10:08:45;;;;;;;67.45;40.05;;;;;;;0.21;94.09;99499.18;1802927;79;21120;-59
2021/01/09 10:11:13;;;;;;;73.20;40.00;;;;;;;0.22;93.99;99499.61;1803166;79;21123;-60
2021/01/09 10:13:41;;;;;;;73.12;39.25;;;;;;;0.23;94.11;99498.37;1811444;79;21051;-59
2021/01/09 10:16:09;;;;;;;74.65;40.00;;;;;;;0.26;93.96;99497.11;1811387;79;21075;-59
2021/01/09 10:18:37;;;;;;;71.40;39.70;;;;;;;0.25;93.92;99491.56;1811517;79;21372;-59
2021/01/09 10:21:05;;;;;;;70.90;39.05;;;;;;;0.27;94.01;99496.69;1811273;79;21166;-59
2021/01/09 10:23:32;;;;;;;72.70;39.88;;;;;;;0.33;94.02;99495.90;1811472;79;21457;-59
2021/01/09 10:26:00;;;;;;;74.62;39.27;;;;;;;0.39;93.76;99491.70;1811407;79;21055;-59
2021/01/09 10:28:28;;;;;;;77.35;40.88;;;;;;;0.44;93.53;99491.72;1811251;79;21125;-59
2021/01/09 10:30:55;;;;;;;76.22;41.28;;;;;;;0.48;93.31;99493.48;1811405;79;21452;-59
2021/01/09 10:33:23;;;;;;;76.22;41.75;;;;;;;0.51;93.39;99490.52;1811313;79;21142;-59
2021/01/09 10:35:51;;;;;;;69.95;39.00;;;;;;;0.56;93.19;99490.56;1811548;79;21063;-58
2021/01/09 10:38:19;;;;;;;70.97;39.23;;;;;;;0.62;93.26;99488.49;1811356;79;21054;-60
2021/01/09 10:40:47;;;;;;;68.62;38.58;;;;;;;0.68;93.00;99491.95;1811544;79;21143;-59
2021/01/09 10:43:15;;;;;;;74.67;41.23;;;;;;;0.73;92.87;99496.67;1811438;79;22245;-60
2021/01/09 10:45:43;;;;;;;72.00;40.10;;;;;;;0.78;92.65;99500.13;1811312;79;21139;-59
2021/01/09 10:48:11;;;;;;;72.90;38.33;;;;;;;0.77;92.27;99503.54;1811458;79;21139;-59
2021/01/09 10:50:39;;;;;;;71.45;38.60;;;;;;;0.75;92.39;99497.53;1811318;79;21051;-58
2021/01/09 10:53:07;;;;;;;75.40;41.70;;;;;;;0.75;92.34;99498.81;1811530;79;21059;-59
2021/01/09 10:55:40;;;;;;;69.53;41.70;;;;;;;0.77;92.34;99498.42;1811367;79;21205;-59
2021/01/09 10:58:05;;;;;;;84.50;50.28;;;;;;;0.79;92.43;99498.00;1811132;79;21139;-59
2021/01/09 11:00:32;;;;;;;83.07;47.60;;;;;;;0.86;92.40;99498.05;1811438;79;21189;-59
2021/01/09 11:03:00;;;;;;;79.60;44.93;;;;;;;0.93;92.40;99495.98;1811649;79;21051;-59
2021/01/09 11:05:30;;;;;;;77.75;43.28;;;;;;;0.98;92.12;99499.41;1811570;79;21078;-58
2021/01/09 11:07:57;;;;;;;74.95;41.23;;;;;;;0.98;91.73;99498.13;1811550;79;21232;-59
2021/01/09 11:10:27;;;;;;;65.17;35.40;;;;;;;1.00;91.69;99491.33;1811220;78;21138;-59
2021/01/09 11:12:57;;;;;;;63.90;36.38;;;;;;;1.01;91.18;99495.18;1822193;78;21102;-59
2021/01/09 11:15:25;;;;;;;61.20;35.40;;;;;;;0.98;90.93;99490.44;1799894;78;21137;-58
2021/01/09 11:17:53;;;;;;;55.92;32.05;;;;;;;0.98;90.84;99491.72;1831474;78;21145;-58
2021/01/09 11:20:20;;;;;;;59.90;33.53;;;;;;;0.97;90.57;99486.17;1831438;78;21201;-58
2021/01/09 11:22:48;;;;;;;52.35;29.65;;;;;;;0.96;90.37;99487.02;1831515;78;21928;-58
2021/01/09 11:25:16;;;;;;;61.60;34.48;;;;;;;0.96;90.38;99485.75;1831329;78;21586;-61
2021/01/09 11:27:43;;;;;;;60.60;35.85;;;;;;;0.95;89.96;99484.89;1831489;78;21090;-58
2021/01/09 11:30:13;;;;;;;57.10;33.10;;;;;;;0.97;90.38;99487.45;1831517;78;21515;-58
2021/01/09 11:32:41;;;;;;;52.80;31.97;;;;;;;1.00;90.39;99488.77;1831522;78;21923;-59
2021/01/09 11:35:10;;;;;;;53.68;30.65;;;;;;;1.00;89.31;99488.35;1831488;78;21094;-58